sensor_id;sensor_type;location;lat;lon;timestamp;P1;durP1;ratioP1;P2;durP2;ratioP2
7665;SDS011;3875;46.562;4.898;2022-07-24T00:01:35;6.43;;;5.87;;
7665;SDS011;3875;46.562;4.898;2022-07-24T00:04:02;7.13;;;6.10;;
7665;SDS011;3875;46.562;4.898;2022-07-24T00:06:28;6.23;;;5.63;;
7665;SDS011;3875;46.562;4.898;2022-07-24T00:08:54;6.47;;;5.63;;
7665;SDS011;3875;46.562;4.898;2022-07-24T00:11:20;7.50;;;6.00;;
7665;SDS011;3875;46.562;4.898;2022-07-24T00:13:45;8.93;;;6.20;;
7665;SDS011;3875;46.562;4.898;2022-07-24T00:16:11;6.47;;;5.73;;
7665;SDS011;3875;46.562;4.898;2022-07-24T00:18:37;6.83;;;6.13;;
7665;SDS011;3875;46.562;4.898;2022-07-24T00:21:03;8.13;;;5.90;;
7665;SDS011;3875;46.562;4.898;2022-07-24T00:23:28;7.67;;;6.10;;
7665;SDS011;3875;46.562;4.898;2022-07-24T00:25:54;7.30;;;6.10;;
7665;SDS011;3875;46.562;4.898;2022-07-24T00:28:20;7.40;;;6.20;;
7665;SDS011;3875;46.562;4.898;2022-07-24T00:30:46;7.23;;;6.47;;
7665;SDS011;3875;46.562;4.898;2022-07-24T00:33:12;6.60;;;5.60;;
7665;SDS011;3875;46.562;4.898;2022-07-24T00:35:38;7.00;;;6.30;;
7665;SDS011;3875;46.562;4.898;2022-07-24T00:38:04;6.63;;;5.87;;
7665;SDS011;3875;46.562;4.898;2022-07-24T00:40:30;6.97;;;5.93;;
7665;SDS011;3875;46.562;4.898;2022-07-24T00:42:56;7.93;;;6.57;;
7665;SDS011;3875;46.562;4.898;2022-07-24T00:45:22;7.60;;;5.97;;
7665;SDS011;3875;46.562;4.898;2022-07-24T00:47:49;7.70;;;6.23;;
7665;SDS011;3875;46.562;4.898;2022-07-24T00:50:15;7.97;;;6.47;;
7665;SDS011;3875;46.562;4.898;2022-07-24T00:52:42;7.37;;;6.47;;
7665;SDS011;3875;46.562;4.898;2022-07-24T00:55:09;9.10;;;6.40;;
7665;SDS011;3875;46.562;4.898;2022-07-24T00:57:35;8.03;;;6.20;;
7665;SDS011;3875;46.562;4.898;2022-07-24T01:00:03;7.57;;;5.90;;
7665;SDS011;3875;46.562;4.898;2022-07-24T01:02:31;7.17;;;6.40;;
7665;SDS011;3875;46.562;4.898;2022-07-24T01:04:57;7.90;;;6.13;;
7665;SDS011;3875;46.562;4.898;2022-07-24T01:07:22;7.23;;;6.40;;
7665;SDS011;3875;46.562;4.898;2022-07-24T01:09:48;6.90;;;5.83;;
7665;SDS011;3875;46.562;4.898;2022-07-24T01:12:15;6.93;;;6.33;;
7665;SDS011;3875;46.562;4.898;2022-07-24T01:14:40;7.37;;;6.40;;
7665;SDS011;3875;46.562;4.898;2022-07-24T01:17:06;6.87;;;6.27;;
7665;SDS011;3875;46.562;4.898;2022-07-24T01:19:32;6.60;;;6.00;;
7665;SDS011;3875;46.562;4.898;2022-07-24T01:21:58;6.63;;;6.03;;
7665;SDS011;3875;46.562;4.898;2022-07-24T01:24:23;7.40;;;6.53;;
7665;SDS011;3875;46.562;4.898;2022-07-24T01:26:49;7.87;;;6.13;;
7665;SDS011;3875;46.562;4.898;2022-07-24T01:29:15;7.20;;;6.50;;
7665;SDS011;3875;46.562;4.898;2022-07-24T01:31:41;7.13;;;5.90;;
7665;SDS011;3875;46.562;4.898;2022-07-24T01:34:07;6.93;;;6.10;;
7665;SDS011;3875;46.562;4.898;2022-07-24T01:36:33;7.20;;;6.40;;
7665;SDS011;3875;46.562;4.898;2022-07-24T01:38:58;8.37;;;6.37;;
7665;SDS011;3875;46.562;4.898;2022-07-24T01:41:24;6.10;;;5.40;;
7665;SDS011;3875;46.562;4.898;2022-07-24T01:43:50;7.43;;;6.10;;
7665;SDS011;3875;46.562;4.898;2022-07-24T01:46:15;6.87;;;6.10;;
7665;SDS011;3875;46.562;4.898;2022-07-24T01:48:42;6.37;;;5.77;;
7665;SDS011;3875;46.562;4.898;2022-07-24T01:51:08;8.03;;;6.13;;
7665;SDS011;3875;46.562;4.898;2022-07-24T01:53:35;6.73;;;5.93;;
7665;SDS011;3875;46.562;4.898;2022-07-24T01:56:01;7.13;;;6.13;;
7665;SDS011;3875;46.562;4.898;2022-07-24T01:58:27;7.03;;;6.00;;
7665;SDS011;3875;46.562;4.898;2022-07-24T02:00:53;6.60;;;6.00;;
7665;SDS011;3875;46.562;4.898;2022-07-24T02:03:18;8.23;;;6.30;;
7665;SDS011;3875;46.562;4.898;2022-07-24T02:05:45;7.10;;;6.40;;
7665;SDS011;3875;46.562;4.898;2022-07-24T02:08:11;10.00;;;6.30;;
7665;SDS011;3875;46.562;4.898;2022-07-24T02:10:38;12.13;;;6.23;;
7665;SDS011;3875;46.562;4.898;2022-07-24T02:13:04;8.80;;;6.37;;
7665;SDS011;3875;46.562;4.898;2022-07-24T02:15:30;6.73;;;6.00;;
7665;SDS011;3875;46.562;4.898;2022-07-24T02:17:57;7.07;;;6.40;;
7665;SDS011;3875;46.562;4.898;2022-07-24T02:20:23;8.53;;;6.77;;
7665;SDS011;3875;46.562;4.898;2022-07-24T02:22:50;7.67;;;6.60;;
7665;SDS011;3875;46.562;4.898;2022-07-24T02:25:15;9.67;;;6.70;;
7665;SDS011;3875;46.562;4.898;2022-07-24T02:27:42;9.00;;;6.43;;
7665;SDS011;3875;46.562;4.898;2022-07-24T02:30:09;6.50;;;5.90;;
7665;SDS011;3875;46.562;4.898;2022-07-24T02:32:41;7.33;;;6.50;;
7665;SDS011;3875;46.562;4.898;2022-07-24T02:35:07;7.87;;;6.60;;
7665;SDS011;3875;46.562;4.898;2022-07-24T02:37:38;7.23;;;6.23;;
7665;SDS011;3875;46.562;4.898;2022-07-24T02:40:05;7.93;;;7.10;;
7665;SDS011;3875;46.562;4.898;2022-07-24T02:42:32;7.10;;;6.40;;
7665;SDS011;3875;46.562;4.898;2022-07-24T02:44:58;7.47;;;6.60;;
7665;SDS011;3875;46.562;4.898;2022-07-24T02:47:24;7.63;;;6.63;;
7665;SDS011;3875;46.562;4.898;2022-07-24T02:49:49;6.63;;;6.03;;
7665;SDS011;3875;46.562;4.898;2022-07-24T02:52:15;7.70;;;6.90;;
7665;SDS011;3875;46.562;4.898;2022-07-24T02:54:41;7.37;;;6.67;;
7665;SDS011;3875;46.562;4.898;2022-07-24T02:57:06;7.10;;;6.47;;
7665;SDS011;3875;46.562;4.898;2022-07-24T02:59:32;6.93;;;6.23;;
7665;SDS011;3875;46.562;4.898;2022-07-24T03:01:58;7.47;;;6.70;;
7665;SDS011;3875;46.562;4.898;2022-07-24T03:04:24;7.87;;;6.47;;
7665;SDS011;3875;46.562;4.898;2022-07-24T03:06:49;9.33;;;6.07;;
7665;SDS011;3875;46.562;4.898;2022-07-24T03:09:15;6.73;;;6.13;;
7665;SDS011;3875;46.562;4.898;2022-07-24T03:11:41;8.43;;;6.80;;
7665;SDS011;3875;46.562;4.898;2022-07-24T03:14:06;9.30;;;7.13;;
7665;SDS011;3875;46.562;4.898;2022-07-24T03:16:32;7.63;;;6.93;;
7665;SDS011;3875;46.562;4.898;2022-07-24T03:18:58;7.97;;;7.17;;
7665;SDS011;3875;46.562;4.898;2022-07-24T03:21:24;9.03;;;7.10;;
7665;SDS011;3875;46.562;4.898;2022-07-24T03:23:49;9.97;;;7.37;;
7665;SDS011;3875;46.562;4.898;2022-07-24T03:26:15;7.93;;;7.00;;
7665;SDS011;3875;46.562;4.898;2022-07-24T03:28:41;7.13;;;6.43;;
7665;SDS011;3875;46.562;4.898;2022-07-24T03:31:07;7.73;;;6.93;;
7665;SDS011;3875;46.562;4.898;2022-07-24T03:33:33;7.07;;;6.37;;
7665;SDS011;3875;46.562;4.898;2022-07-24T03:35:59;7.90;;;7.10;;
7665;SDS011;3875;46.562;4.898;2022-07-24T03:38:24;8.63;;;6.97;;
7665;SDS011;3875;46.562;4.898;2022-07-24T03:40:50;7.43;;;6.40;;
7665;SDS011;3875;46.562;4.898;2022-07-24T03:43:16;8.47;;;7.67;;
7665;SDS011;3875;46.562;4.898;2022-07-24T03:45:42;8.67;;;7.33;;
7665;SDS011;3875;46.562;4.898;2022-07-24T03:48:08;7.90;;;6.47;;
7665;SDS011;3875;46.562;4.898;2022-07-24T03:50:34;9.33;;;7.13;;
7665;SDS011;3875;46.562;4.898;2022-07-24T03:53:00;8.17;;;7.23;;
7665;SDS011;3875;46.562;4.898;2022-07-24T03:55:26;8.10;;;7.10;;
7665;SDS011;3875;46.562;4.898;2022-07-24T03:57:51;7.33;;;6.63;;
7665;SDS011;3875;46.562;4.898;2022-07-24T04:00:17;7.43;;;6.73;;
7665;SDS011;3875;46.562;4.898;2022-07-24T04:02:43;7.50;;;6.73;;
7665;SDS011;3875;46.562;4.898;2022-07-24T04:05:09;9.33;;;7.20;;
7665;SDS011;3875;46.562;4.898;2022-07-24T04:07:36;7.90;;;7.03;;
7665;SDS011;3875;46.562;4.898;2022-07-24T04:10:02;8.03;;;7.17;;
7665;SDS011;3875;46.562;4.898;2022-07-24T04:12:29;7.10;;;6.40;;
7665;SDS011;3875;46.562;4.898;2022-07-24T04:14:55;8.57;;;6.67;;
7665;SDS011;3875;46.562;4.898;2022-07-24T04:17:21;7.73;;;7.00;;
7665;SDS011;3875;46.562;4.898;2022-07-24T04:19:47;7.97;;;7.13;;
7665;SDS011;3875;46.562;4.898;2022-07-24T04:22:12;9.13;;;6.87;;
7665;SDS011;3875;46.562;4.898;2022-07-24T04:24:38;7.67;;;6.97;;
7665;SDS011;3875;46.562;4.898;2022-07-24T04:27:04;8.90;;;7.10;;
7665;SDS011;3875;46.562;4.898;2022-07-24T04:29:29;8.23;;;7.20;;
7665;SDS011;3875;46.562;4.898;2022-07-24T04:31:55;7.53;;;6.60;;
7665;SDS011;3875;46.562;4.898;2022-07-24T04:34:21;7.93;;;7.17;;
7665;SDS011;3875;46.562;4.898;2022-07-24T04:36:46;10.30;;;7.50;;
7665;SDS011;3875;46.562;4.898;2022-07-24T04:39:12;8.23;;;7.27;;
7665;SDS011;3875;46.562;4.898;2022-07-24T04:41:39;8.03;;;7.10;;
7665;SDS011;3875;46.562;4.898;2022-07-24T04:44:04;7.80;;;6.93;;
7665;SDS011;3875;46.562;4.898;2022-07-24T04:46:30;7.83;;;7.03;;
7665;SDS011;3875;46.562;4.898;2022-07-24T04:48:56;8.87;;;7.43;;
7665;SDS011;3875;46.562;4.898;2022-07-24T04:51:22;7.73;;;6.97;;
7665;SDS011;3875;46.562;4.898;2022-07-24T04:53:47;7.53;;;6.83;;
7665;SDS011;3875;46.562;4.898;2022-07-24T04:56:13;8.10;;;7.30;;
7665;SDS011;3875;46.562;4.898;2022-07-24T04:58:39;7.57;;;6.70;;
7665;SDS011;3875;46.562;4.898;2022-07-24T05:01:05;8.07;;;7.27;;
7665;SDS011;3875;46.562;4.898;2022-07-24T05:03:31;10.50;;;7.83;;
7665;SDS011;3875;46.562;4.898;2022-07-24T05:05:57;9.60;;;7.27;;
7665;SDS011;3875;46.562;4.898;2022-07-24T05:08:23;8.10;;;7.10;;
7665;SDS011;3875;46.562;4.898;2022-07-24T05:10:48;7.27;;;6.57;;
7665;SDS011;3875;46.562;4.898;2022-07-24T05:13:14;8.27;;;7.10;;
7665;SDS011;3875;46.562;4.898;2022-07-24T05:15:40;8.37;;;6.67;;
7665;SDS011;3875;46.562;4.898;2022-07-24T05:18:06;8.13;;;7.17;;
7665;SDS011;3875;46.562;4.898;2022-07-24T05:20:31;8.00;;;7.20;;
7665;SDS011;3875;46.562;4.898;2022-07-24T05:22:57;8.63;;;6.70;;
7665;SDS011;3875;46.562;4.898;2022-07-24T05:25:23;10.87;;;7.20;;
7665;SDS011;3875;46.562;4.898;2022-07-24T05:27:49;8.03;;;6.90;;
7665;SDS011;3875;46.562;4.898;2022-07-24T05:30:14;8.40;;;7.60;;
7665;SDS011;3875;46.562;4.898;2022-07-24T05:32:40;7.83;;;7.03;;
7665;SDS011;3875;46.562;4.898;2022-07-24T05:35:06;7.80;;;7.07;;
7665;SDS011;3875;46.562;4.898;2022-07-24T05:37:32;7.70;;;6.97;;
7665;SDS011;3875;46.562;4.898;2022-07-24T05:39:58;7.70;;;7.00;;
7665;SDS011;3875;46.562;4.898;2022-07-24T05:42:23;7.90;;;7.10;;
7665;SDS011;3875;46.562;4.898;2022-07-24T05:44:49;7.97;;;7.23;;
7665;SDS011;3875;46.562;4.898;2022-07-24T05:47:15;7.87;;;7.00;;
7665;SDS011;3875;46.562;4.898;2022-07-24T05:49:40;8.50;;;7.60;;
7665;SDS011;3875;46.562;4.898;2022-07-24T05:52:06;8.00;;;7.30;;
7665;SDS011;3875;46.562;4.898;2022-07-24T05:54:32;7.73;;;6.93;;
7665;SDS011;3875;46.562;4.898;2022-07-24T05:56:57;7.77;;;6.97;;
7665;SDS011;3875;46.562;4.898;2022-07-24T05:59:23;7.50;;;6.80;;
7665;SDS011;3875;46.562;4.898;2022-07-24T06:01:49;8.33;;;6.97;;
7665;SDS011;3875;46.562;4.898;2022-07-24T06:04:15;7.83;;;6.90;;
7665;SDS011;3875;46.562;4.898;2022-07-24T06:06:40;10.73;;;7.10;;
7665;SDS011;3875;46.562;4.898;2022-07-24T06:09:06;7.03;;;6.43;;
7665;SDS011;3875;46.562;4.898;2022-07-24T06:11:32;8.17;;;6.87;;
7665;SDS011;3875;46.562;4.898;2022-07-24T06:13:58;7.17;;;6.47;;
7665;SDS011;3875;46.562;4.898;2022-07-24T06:16:24;7.87;;;7.07;;
7665;SDS011;3875;46.562;4.898;2022-07-24T06:18:49;7.00;;;6.30;;
7665;SDS011;3875;46.562;4.898;2022-07-24T06:21:15;7.10;;;6.40;;
7665;SDS011;3875;46.562;4.898;2022-07-24T06:23:41;10.13;;;6.80;;
7665;SDS011;3875;46.562;4.898;2022-07-24T06:26:07;7.97;;;7.17;;
7665;SDS011;3875;46.562;4.898;2022-07-24T06:28:33;8.27;;;7.17;;
7665;SDS011;3875;46.562;4.898;2022-07-24T06:30:58;7.70;;;7.00;;
7665;SDS011;3875;46.562;4.898;2022-07-24T06:33:24;7.53;;;6.83;;
7665;SDS011;3875;46.562;4.898;2022-07-24T06:35:50;7.63;;;6.57;;
7665;SDS011;3875;46.562;4.898;2022-07-24T06:38:15;7.97;;;6.70;;
7665;SDS011;3875;46.562;4.898;2022-07-24T06:40:42;7.83;;;7.03;;
7665;SDS011;3875;46.562;4.898;2022-07-24T06:43:08;7.13;;;6.20;;
7665;SDS011;3875;46.562;4.898;2022-07-24T06:45:33;7.27;;;6.40;;
7665;SDS011;3875;46.562;4.898;2022-07-24T06:48:01;8.10;;;6.90;;
7665;SDS011;3875;46.562;4.898;2022-07-24T06:50:27;6.90;;;6.13;;
7665;SDS011;3875;46.562;4.898;2022-07-24T06:52:53;7.17;;;6.50;;
7665;SDS011;3875;46.562;4.898;2022-07-24T06:55:19;8.43;;;6.70;;
7665;SDS011;3875;46.562;4.898;2022-07-24T06:57:45;13.57;;;7.00;;
7665;SDS011;3875;46.562;4.898;2022-07-24T07:00:11;7.57;;;6.50;;
7665;SDS011;3875;46.562;4.898;2022-07-24T07:02:38;6.87;;;6.23;;
7665;SDS011;3875;46.562;4.898;2022-07-24T07:05:05;8.10;;;7.00;;
7665;SDS011;3875;46.562;4.898;2022-07-24T07:07:32;11.30;;;7.13;;
7665;SDS011;3875;46.562;4.898;2022-07-24T07:09:58;9.60;;;7.10;;
7665;SDS011;3875;46.562;4.898;2022-07-24T07:12:23;7.57;;;6.90;;
7665;SDS011;3875;46.562;4.898;2022-07-24T07:14:49;8.80;;;6.60;;
7665;SDS011;3875;46.562;4.898;2022-07-24T07:17:15;8.43;;;7.07;;
7665;SDS011;3875;46.562;4.898;2022-07-24T07:19:41;7.57;;;6.73;;
7665;SDS011;3875;46.562;4.898;2022-07-24T07:22:08;7.17;;;6.43;;
7665;SDS011;3875;46.562;4.898;2022-07-24T07:24:34;9.43;;;6.70;;
7665;SDS011;3875;46.562;4.898;2022-07-24T07:26:59;6.83;;;6.13;;
7665;SDS011;3875;46.562;4.898;2022-07-24T07:29:25;7.87;;;6.53;;
7665;SDS011;3875;46.562;4.898;2022-07-24T07:31:51;9.10;;;7.07;;
7665;SDS011;3875;46.562;4.898;2022-07-24T07:34:17;7.90;;;6.63;;
7665;SDS011;3875;46.562;4.898;2022-07-24T07:36:43;7.00;;;6.30;;
7665;SDS011;3875;46.562;4.898;2022-07-24T07:39:09;7.77;;;6.90;;
7665;SDS011;3875;46.562;4.898;2022-07-24T07:41:35;7.93;;;7.13;;
7665;SDS011;3875;46.562;4.898;2022-07-24T07:44:00;8.77;;;7.30;;
7665;SDS011;3875;46.562;4.898;2022-07-24T07:46:26;8.30;;;6.93;;
7665;SDS011;3875;46.562;4.898;2022-07-24T07:48:52;7.43;;;6.60;;
7665;SDS011;3875;46.562;4.898;2022-07-24T07:51:18;7.53;;;6.83;;
7665;SDS011;3875;46.562;4.898;2022-07-24T07:53:44;7.33;;;6.63;;
7665;SDS011;3875;46.562;4.898;2022-07-24T07:56:10;6.90;;;6.30;;
7665;SDS011;3875;46.562;4.898;2022-07-24T07:58:36;7.30;;;6.40;;
7665;SDS011;3875;46.562;4.898;2022-07-24T08:01:02;9.50;;;6.70;;
7665;SDS011;3875;46.562;4.898;2022-07-24T08:03:28;7.27;;;6.57;;
7665;SDS011;3875;46.562;4.898;2022-07-24T08:05:54;7.80;;;6.03;;
7665;SDS011;3875;46.562;4.898;2022-07-24T08:08:20;7.50;;;6.70;;
7665;SDS011;3875;46.562;4.898;2022-07-24T08:10:45;7.10;;;6.50;;
7665;SDS011;3875;46.562;4.898;2022-07-24T08:13:11;8.23;;;6.30;;
7665;SDS011;3875;46.562;4.898;2022-07-24T08:15:39;7.80;;;7.07;;
7665;SDS011;3875;46.562;4.898;2022-07-24T08:18:05;7.40;;;6.73;;
7665;SDS011;3875;46.562;4.898;2022-07-24T08:20:32;7.57;;;6.77;;
7665;SDS011;3875;46.562;4.898;2022-07-24T08:22:58;6.83;;;6.23;;
7665;SDS011;3875;46.562;4.898;2022-07-24T08:25:23;7.17;;;6.47;;
7665;SDS011;3875;46.562;4.898;2022-07-24T08:27:49;7.07;;;6.37;;
7665;SDS011;3875;46.562;4.898;2022-07-24T08:30:15;7.97;;;6.83;;
7665;SDS011;3875;46.562;4.898;2022-07-24T08:32:41;7.27;;;6.47;;
7665;SDS011;3875;46.562;4.898;2022-07-24T08:35:08;6.67;;;6.07;;
7665;SDS011;3875;46.562;4.898;2022-07-24T08:37:36;7.13;;;6.40;;
7665;SDS011;3875;46.562;4.898;2022-07-24T08:40:02;6.80;;;5.87;;
7665;SDS011;3875;46.562;4.898;2022-07-24T08:42:29;6.73;;;5.93;;
7665;SDS011;3875;46.562;4.898;2022-07-24T08:44:55;7.63;;;6.70;;
7665;SDS011;3875;46.562;4.898;2022-07-24T08:47:21;6.70;;;5.67;;
7665;SDS011;3875;46.562;4.898;2022-07-24T08:49:48;6.80;;;5.90;;
7665;SDS011;3875;46.562;4.898;2022-07-24T08:52:17;6.07;;;5.50;;
7665;SDS011;3875;46.562;4.898;2022-07-24T08:54:45;8.30;;;6.53;;
7665;SDS011;3875;46.562;4.898;2022-07-24T08:57:11;7.63;;;6.60;;
7665;SDS011;3875;46.562;4.898;2022-07-24T08:59:36;7.13;;;6.40;;
7665;SDS011;3875;46.562;4.898;2022-07-24T09:02:02;6.80;;;6.10;;
7665;SDS011;3875;46.562;4.898;2022-07-24T09:04:35;7.07;;;6.37;;
7665;SDS011;3875;46.562;4.898;2022-07-24T09:07:03;6.90;;;6.30;;
7665;SDS011;3875;46.562;4.898;2022-07-24T09:09:34;6.70;;;5.97;;
7665;SDS011;3875;46.562;4.898;2022-07-24T09:12:04;7.73;;;6.73;;
7665;SDS011;3875;46.562;4.898;2022-07-24T09:14:35;8.38;;;6.68;;
7665;SDS011;3875;46.562;4.898;2022-07-24T09:17:05;8.03;;;6.70;;
7665;SDS011;3875;46.562;4.898;2022-07-24T09:27:51;7.23;;;6.57;;
7665;SDS011;3875;46.562;4.898;2022-07-24T09:30:24;6.77;;;6.07;;
7665;SDS011;3875;46.562;4.898;2022-07-24T09:32:54;6.68;;;6.18;;
7665;SDS011;3875;46.562;4.898;2022-07-24T09:35:32;6.68;;;6.07;;
7665;SDS011;3875;46.562;4.898;2022-07-24T09:38:10;7.03;;;5.60;;
7665;SDS011;3875;46.562;4.898;2022-07-24T09:40:38;6.53;;;6.03;;
7665;SDS011;3875;46.562;4.898;2022-07-24T09:48:26;7.57;;;5.78;;
7665;SDS011;3875;46.562;4.898;2022-07-24T09:50:55;7.78;;;6.38;;
7665;SDS011;3875;46.562;4.898;2022-07-24T09:53:27;8.82;;;6.75;;
7665;SDS011;3875;46.562;4.898;2022-07-24T09:56:02;6.25;;;5.75;;
7665;SDS011;3875;46.562;4.898;2022-07-24T09:58:36;6.53;;;5.88;;
7665;SDS011;3875;46.562;4.898;2022-07-24T10:01:05;6.57;;;5.97;;
7665;SDS011;3875;46.562;4.898;2022-07-24T10:03:33;6.72;;;6.03;;
7665;SDS011;3875;46.562;4.898;2022-07-24T10:06:01;7.18;;;6.35;;
7665;SDS011;3875;46.562;4.898;2022-07-24T10:08:29;6.65;;;6.03;;
7665;SDS011;3875;46.562;4.898;2022-07-24T10:10:56;6.30;;;5.68;;
7665;SDS011;3875;46.562;4.898;2022-07-24T10:13:22;6.90;;;6.28;;
7665;SDS011;3875;46.562;4.898;2022-07-24T10:21:10;9.93;;;6.00;;
7665;SDS011;3875;46.562;4.898;2022-07-24T10:26:34;6.40;;;5.72;;
7665;SDS011;3875;46.562;4.898;2022-07-24T10:29:05;6.60;;;5.97;;
7665;SDS011;3875;46.562;4.898;2022-07-24T10:31:39;6.03;;;5.32;;
7665;SDS011;3875;46.562;4.898;2022-07-24T10:39:51;5.82;;;5.32;;
7665;SDS011;3875;46.562;4.898;2022-07-24T10:45:38;6.30;;;5.43;;
7665;SDS011;3875;46.562;4.898;2022-07-24T10:48:28;5.82;;;5.00;;
7665;SDS011;3875;46.562;4.898;2022-07-24T10:53:46;6.13;;;5.57;;
7665;SDS011;3875;46.562;4.898;2022-07-24T10:58:57;6.95;;;5.63;;
7665;SDS011;3875;46.562;4.898;2022-07-24T11:06:48;7.15;;;5.93;;
7665;SDS011;3875;46.562;4.898;2022-07-24T11:09:14;6.35;;;5.75;;
7665;SDS011;3875;46.562;4.898;2022-07-24T11:11:42;9.00;;;5.82;;
7665;SDS011;3875;46.562;4.898;2022-07-24T11:17:49;7.03;;;5.40;;
7665;SDS011;3875;46.562;4.898;2022-07-24T11:20:01;6.43;;;5.80;;
7665;SDS011;3875;46.562;4.898;2022-07-24T11:22:38;6.13;;;5.53;;
7665;SDS011;3875;46.562;4.898;2022-07-24T11:25:05;6.00;;;5.50;;
7665;SDS011;3875;46.562;4.898;2022-07-24T11:27:41;10.05;;;5.43;;
7665;SDS011;3875;46.562;4.898;2022-07-24T11:30:09;6.18;;;5.57;;
7665;SDS011;3875;46.562;4.898;2022-07-24T11:32:36;5.93;;;5.43;;
7665;SDS011;3875;46.562;4.898;2022-07-24T11:35:04;8.02;;;5.70;;
7665;SDS011;3875;46.562;4.898;2022-07-24T11:37:32;7.05;;;5.72;;
7665;SDS011;3875;46.562;4.898;2022-07-24T11:40:00;5.88;;;5.38;;
7665;SDS011;3875;46.562;4.898;2022-07-24T11:42:28;5.97;;;5.43;;
7665;SDS011;3875;46.562;4.898;2022-07-24T11:44:54;6.18;;;5.68;;
7665;SDS011;3875;46.562;4.898;2022-07-24T11:47:20;6.78;;;5.60;;
7665;SDS011;3875;46.562;4.898;2022-07-24T11:54:57;6.05;;;5.55;;
7665;SDS011;3875;46.562;4.898;2022-07-24T11:57:33;5.80;;;5.30;;
7665;SDS011;3875;46.562;4.898;2022-07-24T12:00:08;5.93;;;5.20;;
7665;SDS011;3875;46.562;4.898;2022-07-24T12:02:36;5.95;;;5.45;;
7665;SDS011;3875;46.562;4.898;2022-07-24T12:05:07;6.57;;;5.45;;
7665;SDS011;3875;46.562;4.898;2022-07-24T12:07:33;6.63;;;5.57;;
7665;SDS011;3875;46.562;4.898;2022-07-24T12:10:01;6.88;;;6.07;;
7665;SDS011;3875;46.562;4.898;2022-07-24T12:17:32;6.47;;;5.97;;
7665;SDS011;3875;46.562;4.898;2022-07-24T12:20:20;6.18;;;5.28;;
7665;SDS011;3875;46.562;4.898;2022-07-24T12:22:54;6.43;;;5.82;;
7665;SDS011;3875;46.562;4.898;2022-07-24T12:25:20;6.28;;;5.68;;
7665;SDS011;3875;46.562;4.898;2022-07-24T12:27:47;6.25;;;5.70;;
7665;SDS011;3875;46.562;4.898;2022-07-24T12:30:23;7.28;;;5.10;;
7665;SDS011;3875;46.562;4.898;2022-07-24T12:32:55;5.95;;;5.45;;
7665;SDS011;3875;46.562;4.898;2022-07-24T12:35:21;5.53;;;5.07;;
7665;SDS011;3875;46.562;4.898;2022-07-24T12:37:48;5.80;;;5.30;;
7665;SDS011;3875;46.562;4.898;2022-07-24T12:40:24;5.45;;;4.90;;
7665;SDS011;3875;46.562;4.898;2022-07-24T12:42:55;5.45;;;5.00;;
7665;SDS011;3875;46.562;4.898;2022-07-24T12:45:22;5.85;;;5.28;;
7665;SDS011;3875;46.562;4.898;2022-07-24T12:50:36;5.65;;;5.00;;
7665;SDS011;3875;46.562;4.898;2022-07-24T12:53:07;5.68;;;5.25;;
7665;SDS011;3875;46.562;4.898;2022-07-24T12:55:34;6.18;;;5.05;;
7665;SDS011;3875;46.562;4.898;2022-07-24T12:58:04;5.82;;;5.32;;
7665;SDS011;3875;46.562;4.898;2022-07-24T13:00:30;7.30;;;5.53;;
7665;SDS011;3875;46.562;4.898;2022-07-24T13:02:56;6.85;;;5.28;;
7665;SDS011;3875;46.562;4.898;2022-07-24T13:08:04;6.57;;;5.20;;
7665;SDS011;3875;46.562;4.898;2022-07-24T13:10:30;6.53;;;5.28;;
7665;SDS011;3875;46.562;4.898;2022-07-24T13:12:56;5.70;;;5.05;;
7665;SDS011;3875;46.562;4.898;2022-07-24T13:15:21;5.72;;;5.22;;
7665;SDS011;3875;46.562;4.898;2022-07-24T13:17:47;9.55;;;5.43;;
7665;SDS011;3875;46.562;4.898;2022-07-24T13:20:13;5.57;;;5.05;;
7665;SDS011;3875;46.562;4.898;2022-07-24T13:22:38;5.65;;;5.20;;
7665;SDS011;3875;46.562;4.898;2022-07-24T13:25:04;6.47;;;5.88;;
7665;SDS011;3875;46.562;4.898;2022-07-24T13:27:30;5.72;;;5.15;;
7665;SDS011;3875;46.562;4.898;2022-07-24T13:29:56;6.18;;;5.47;;
7665;SDS011;3875;46.562;4.898;2022-07-24T13:32:21;5.43;;;4.93;;
7665;SDS011;3875;46.562;4.898;2022-07-24T13:34:47;6.25;;;5.35;;
7665;SDS011;3875;46.562;4.898;2022-07-24T13:37:13;5.97;;;5.38;;
7665;SDS011;3875;46.562;4.898;2022-07-24T13:39:39;5.93;;;5.10;;
7665;SDS011;3875;46.562;4.898;2022-07-24T13:42:08;6.05;;;5.47;;
7665;SDS011;3875;46.562;4.898;2022-07-24T13:44:34;6.32;;;5.72;;
7665;SDS011;3875;46.562;4.898;2022-07-24T13:47:00;5.88;;;5.40;;
7665;SDS011;3875;46.562;4.898;2022-07-24T13:49:26;5.75;;;5.25;;
7665;SDS011;3875;46.562;4.898;2022-07-24T13:51:51;6.65;;;5.53;;
7665;SDS011;3875;46.562;4.898;2022-07-24T13:54:17;5.00;;;4.60;;
7665;SDS011;3875;46.562;4.898;2022-07-24T13:56:43;5.97;;;5.38;;
7665;SDS011;3875;46.562;4.898;2022-07-24T13:59:09;6.50;;;5.18;;
7665;SDS011;3875;46.562;4.898;2022-07-24T14:01:35;6.15;;;5.65;;
7665;SDS011;3875;46.562;4.898;2022-07-24T14:04:02;9.23;;;5.70;;
7665;SDS011;3875;46.562;4.898;2022-07-24T14:06:29;5.90;;;5.30;;
7665;SDS011;3875;46.562;4.898;2022-07-24T14:08:55;6.18;;;5.57;;
7665;SDS011;3875;46.562;4.898;2022-07-24T14:11:21;8.30;;;5.45;;
7665;SDS011;3875;46.562;4.898;2022-07-24T14:13:46;6.28;;;5.68;;
7665;SDS011;3875;46.562;4.898;2022-07-24T14:16:12;6.20;;;5.70;;
7665;SDS011;3875;46.562;4.898;2022-07-24T14:18:38;6.10;;;5.43;;
7665;SDS011;3875;46.562;4.898;2022-07-24T14:21:03;5.78;;;5.28;;
7665;SDS011;3875;46.562;4.898;2022-07-24T14:23:29;6.60;;;6.00;;
7665;SDS011;3875;46.562;4.898;2022-07-24T14:25:55;6.72;;;6.07;;
7665;SDS011;3875;46.562;4.898;2022-07-24T14:28:21;6.60;;;6.00;;
7665;SDS011;3875;46.562;4.898;2022-07-24T14:30:46;8.18;;;5.13;;
7665;SDS011;3875;46.562;4.898;2022-07-24T14:33:12;6.53;;;5.88;;
7665;SDS011;3875;46.562;4.898;2022-07-24T14:35:38;6.45;;;5.47;;
7665;SDS011;3875;46.562;4.898;2022-07-24T14:38:03;5.55;;;5.03;;
7665;SDS011;3875;46.562;4.898;2022-07-24T14:40:29;6.13;;;5.18;;
7665;SDS011;3875;46.562;4.898;2022-07-24T14:42:55;6.00;;;5.50;;
7665;SDS011;3875;46.562;4.898;2022-07-24T14:45:21;6.45;;;5.85;;
7665;SDS011;3875;46.562;4.898;2022-07-24T14:47:47;6.53;;;5.32;;
7665;SDS011;3875;46.562;4.898;2022-07-24T14:50:13;5.70;;;5.10;;
7665;SDS011;3875;46.562;4.898;2022-07-24T14:52:39;6.45;;;5.85;;
7665;SDS011;3875;46.562;4.898;2022-07-24T14:55:05;6.20;;;5.70;;
7665;SDS011;3875;46.562;4.898;2022-07-24T14:57:32;5.97;;;5.47;;
7665;SDS011;3875;46.562;4.898;2022-07-24T14:59:57;5.82;;;5.22;;
7665;SDS011;3875;46.562;4.898;2022-07-24T15:02:23;6.53;;;5.93;;
7665;SDS011;3875;46.562;4.898;2022-07-24T15:04:49;5.93;;;5.43;;
7665;SDS011;3875;46.562;4.898;2022-07-24T15:07:15;5.60;;;4.97;;
7665;SDS011;3875;46.562;4.898;2022-07-24T15:09:41;7.90;;;5.40;;
7665;SDS011;3875;46.562;4.898;2022-07-24T15:12:07;7.63;;;5.43;;
7665;SDS011;3875;46.562;4.898;2022-07-24T15:14:32;6.78;;;6.18;;
7665;SDS011;3875;46.562;4.898;2022-07-24T15:16:58;6.60;;;5.53;;
7665;SDS011;3875;46.562;4.898;2022-07-24T15:19:24;6.68;;;5.93;;
7665;SDS011;3875;46.562;4.898;2022-07-24T15:21:50;6.28;;;5.35;;
7665;SDS011;3875;46.562;4.898;2022-07-24T15:24:16;6.60;;;6.05;;
7665;SDS011;3875;46.562;4.898;2022-07-24T15:26:41;5.93;;;5.43;;
7665;SDS011;3875;46.562;4.898;2022-07-24T15:29:07;6.53;;;5.85;;
7665;SDS011;3875;46.562;4.898;2022-07-24T15:31:33;7.25;;;5.57;;
7665;SDS011;3875;46.562;4.898;2022-07-24T15:33:59;6.50;;;5.90;;
7665;SDS011;3875;46.562;4.898;2022-07-24T15:36:25;7.63;;;6.03;;
7665;SDS011;3875;46.562;4.898;2022-07-24T15:38:50;6.00;;;5.28;;
7665;SDS011;3875;46.562;4.898;2022-07-24T15:41:16;6.00;;;5.30;;
7665;SDS011;3875;46.562;4.898;2022-07-24T15:43:42;6.72;;;6.00;;
7665;SDS011;3875;46.562;4.898;2022-07-24T15:46:07;6.82;;;6.18;;
7665;SDS011;3875;46.562;4.898;2022-07-24T15:48:33;6.85;;;6.13;;
7665;SDS011;3875;46.562;4.898;2022-07-24T15:50:59;6.65;;;6.05;;
7665;SDS011;3875;46.562;4.898;2022-07-24T15:53:24;6.50;;;5.90;;
7665;SDS011;3875;46.562;4.898;2022-07-24T15:55:51;6.07;;;5.47;;
7665;SDS011;3875;46.562;4.898;2022-07-24T15:58:17;6.43;;;5.65;;
7665;SDS011;3875;46.562;4.898;2022-07-24T16:00:43;6.65;;;5.78;;
7665;SDS011;3875;46.562;4.898;2022-07-24T16:03:09;6.55;;;5.95;;
7665;SDS011;3875;46.562;4.898;2022-07-24T16:05:35;6.63;;;5.32;;
7665;SDS011;3875;46.562;4.898;2022-07-24T16:08:00;7.22;;;6.47;;
7665;SDS011;3875;46.562;4.898;2022-07-24T16:10:26;7.20;;;6.15;;
7665;SDS011;3875;46.562;4.898;2022-07-24T16:12:53;6.30;;;5.72;;